createdAt,value
2023-04-07T00:00:50.616Z,5.20
2023-04-07T00:01:50.672Z,5.40
2023-04-07T00:02:50.657Z,5.50
2023-04-07T00:03:50.758Z,4.90
2023-04-07T00:04:50.613Z,4.60
2023-04-07T00:05:50.565Z,4.90
2023-04-07T00:06:50.569Z,4.70
2023-04-07T00:07:56.538Z,4.40
2023-04-07T00:08:50.664Z,4.90
2023-04-07T00:09:50.561Z,4.70
2023-04-07T00:10:50.513Z,4.80
2023-04-07T00:11:50.496Z,4.70
2023-04-07T00:12:50.507Z,4.30
2023-04-07T00:13:50.530Z,4.90
2023-04-07T00:14:50.479Z,4.80
2023-04-07T00:15:50.503Z,4.50
2023-04-07T00:16:50.463Z,4.70
2023-04-07T00:17:50.469Z,5.10
2023-04-07T00:18:50.443Z,4.60
2023-04-07T00:19:50.417Z,4.60
2023-04-07T00:20:50.413Z,4.40
2023-04-07T00:21:50.404Z,4.20
2023-04-07T00:22:50.418Z,4.30
2023-04-07T00:23:50.393Z,4.20
2023-04-07T00:24:50.370Z,3.70
2023-04-07T00:25:50.360Z,3.70
2023-04-07T00:26:50.344Z,3.60
2023-04-07T00:27:50.336Z,3.70
2023-04-07T00:28:50.401Z,3.70
2023-04-07T00:29:50.315Z,3.80
2023-04-07T00:30:50.360Z,3.30
2023-04-07T00:31:50.314Z,3.50
2023-04-07T00:32:50.335Z,3.20
2023-04-07T00:33:50.288Z,3.90
2023-04-07T00:34:50.270Z,3.40
2023-04-07T00:35:50.299Z,3.80
2023-04-07T00:36:50.241Z,2.90
2023-04-07T00:37:50.231Z,3.20
2023-04-07T00:38:50.237Z,3.10
2023-04-07T00:39:50.205Z,3.20
2023-04-07T00:40:50.208Z,3.30
2023-04-07T00:41:50.185Z,3.40
2023-04-07T00:42:50.184Z,3.10
2023-04-07T00:43:50.189Z,3.10
2023-04-07T00:44:50.170Z,3.60
2023-04-07T00:45:50.148Z,3.10
2023-04-07T00:46:50.163Z,3.20
2023-04-07T00:47:50.192Z,3.80
2023-04-07T00:48:50.162Z,3.70
2023-04-07T00:49:50.180Z,3.30
2023-04-07T00:50:50.119Z,3.50
2023-04-07T00:51:50.096Z,3.30
2023-04-07T00:52:50.227Z,3.60
2023-04-07T00:53:50.084Z,3.50
2023-04-07T00:54:50.051Z,2.80
2023-04-07T00:55:50.087Z,3.60
2023-04-07T00:56:50.025Z,3.10
2023-04-07T00:57:50.014Z,3.80
2023-04-07T00:58:50.032Z,3.40
2023-04-07T00:59:49.994Z,3.10
2023-04-07T01:00:49.993Z,3.20
2023-04-07T01:01:50.033Z,3.30
2023-04-07T01:02:50.148Z,3.20
2023-04-07T01:03:50.105Z,3.10
2023-04-07T01:04:50.046Z,3.10
2023-04-07T01:05:49.926Z,3.30
2023-04-07T01:06:49.953Z,3.60
2023-04-07T01:07:49.905Z,3.60
2023-04-07T01:08:49.913Z,3.70
2023-04-07T01:09:49.918Z,3.20
2023-04-07T01:10:49.897Z,3.50
2023-04-07T01:11:49.870Z,3.00
2023-04-07T01:12:49.858Z,3.30
2023-04-07T01:13:49.884Z,3.90
2023-04-07T01:14:49.838Z,4.20
2023-04-07T01:15:49.871Z,3.20
2023-04-07T01:16:49.831Z,3.20
2023-04-07T01:17:49.852Z,3.60
2023-04-07T01:18:49.813Z,3.50
2023-04-07T01:19:49.791Z,3.50
2023-04-07T01:20:49.785Z,3.90
2023-04-07T01:21:49.763Z,3.80
2023-04-07T01:22:49.776Z,3.60
2023-04-07T01:23:49.757Z,3.60
2023-04-07T01:24:49.747Z,3.30
2023-04-07T01:25:49.721Z,3.70
2023-04-07T01:26:49.716Z,3.50
2023-04-07T01:27:49.752Z,3.10
2023-04-07T01:28:49.697Z,3.70
2023-04-07T01:29:49.684Z,3.30
2023-04-07T01:30:49.691Z,3.30
2023-04-07T01:31:49.702Z,3.40
2023-04-07T01:32:49.700Z,3.40
2023-04-07T01:33:49.647Z,3.40
2023-04-07T01:34:49.630Z,3.60
2023-04-07T01:35:49.626Z,3.30
2023-04-07T01:36:49.618Z,3.10
2023-04-07T01:37:49.626Z,3.80
2023-04-07T01:38:49.581Z,3.50
2023-04-07T01:39:49.622Z,3.50
2023-04-07T01:40:49.572Z,3.50
2023-04-07T01:41:49.562Z,3.20
2023-04-07T01:42:49.604Z,3.40
2023-04-07T01:43:49.542Z,3.20
2023-04-07T01:44:49.584Z,3.50
2023-04-07T01:45:49.511Z,3.40
2023-04-07T01:46:49.521Z,3.50
2023-04-07T01:47:49.546Z,3.20
2023-04-07T01:48:49.493Z,3.40
2023-04-07T01:49:49.503Z,3.60
2023-04-07T01:50:49.460Z,3.70
2023-04-07T01:51:49.461Z,3.60
2023-04-07T01:52:49.435Z,3.40
2023-04-07T01:53:49.447Z,3.60
2023-04-07T01:54:49.418Z,3.20
2023-04-07T01:55:49.417Z,3.80
2023-04-07T01:56:49.403Z,3.70
2023-04-07T01:57:49.386Z,3.80
2023-04-07T01:58:49.392Z,3.20
2023-04-07T01:59:49.364Z,3.30
2023-04-07T02:00:49.381Z,3.20
2023-04-07T02:01:49.524Z,3.40
2023-04-07T02:02:49.468Z,3.00
2023-04-07T02:03:49.509Z,3.30
2023-04-07T02:04:49.319Z,3.20
2023-04-07T02:05:49.305Z,3.40
2023-04-07T02:06:49.308Z,3.30
2023-04-07T02:07:49.286Z,3.50
2023-04-07T02:08:49.301Z,3.20
2023-04-07T02:09:49.260Z,3.40
2023-04-07T02:10:49.267Z,3.40
2023-04-07T02:11:49.250Z,3.40
2023-04-07T02:12:49.224Z,3.50
2023-04-07T02:13:49.261Z,3.20
2023-04-07T02:14:49.209Z,3.60
2023-04-07T02:15:49.208Z,3.50
2023-04-07T02:16:49.280Z,3.30
2023-04-07T02:17:49.314Z,3.50
2023-04-07T02:18:49.281Z,3.30
2023-04-07T02:19:49.157Z,3.40
2023-04-07T02:20:49.148Z,3.70
2023-04-07T02:21:49.134Z,3.50
2023-04-07T02:22:49.125Z,3.60
2023-04-07T02:23:49.128Z,3.40
2023-04-07T02:24:49.229Z,3.50
2023-04-07T02:25:49.108Z,3.70
2023-04-07T02:26:49.083Z,3.70
2023-04-07T02:27:49.081Z,3.40
2023-04-07T02:28:49.091Z,3.70
2023-04-07T02:29:49.057Z,3.10
2023-04-07T02:30:49.037Z,3.50
2023-04-07T02:31:49.174Z,3.50
2023-04-07T02:32:49.067Z,3.60
2023-04-07T02:33:49.045Z,3.40
2023-04-07T02:34:49.020Z,3.50
2023-04-07T02:35:48.995Z,3.10
2023-04-07T02:36:48.985Z,3.60
2023-04-07T02:37:49.003Z,3.80
2023-04-07T02:38:48.958Z,3.50
2023-04-07T02:39:48.948Z,3.40
2023-04-07T02:40:48.939Z,3.00
2023-04-07T02:41:48.937Z,3.40
2023-04-07T02:42:48.970Z,3.90
2023-04-07T02:43:48.927Z,3.50
2023-04-07T02:44:48.888Z,3.60
2023-04-07T02:45:48.894Z,3.30
2023-04-07T02:46:48.906Z,3.40
2023-04-07T02:47:48.916Z,3.20
2023-04-07T02:48:48.859Z,3.30
2023-04-07T02:49:48.845Z,3.50
2023-04-07T02:50:48.837Z,3.90
2023-04-07T02:51:48.828Z,3.40
2023-04-07T02:52:48.844Z,3.30
2023-04-07T02:53:48.795Z,3.50
2023-04-07T02:54:48.791Z,3.30
2023-04-07T02:55:48.799Z,3.60
2023-04-07T02:56:48.792Z,3.30
2023-04-07T02:57:48.760Z,3.50
2023-04-07T02:58:48.747Z,3.90
2023-04-07T02:59:48.793Z,3.10
2023-04-07T03:00:49.653Z,2.90
2023-04-07T03:01:48.831Z,3.80
2023-04-07T03:02:48.850Z,3.50
2023-04-07T03:03:48.735Z,3.80
2023-04-07T03:04:48.681Z,3.40
2023-04-07T03:05:48.694Z,3.30
2023-04-07T03:06:48.657Z,3.30
2023-04-07T03:07:48.685Z,3.30
2023-04-07T03:08:48.637Z,3.90
2023-04-07T03:09:48.637Z,3.90
2023-04-07T03:10:48.623Z,3.30
2023-04-07T03:11:48.608Z,3.60
2023-04-07T03:12:48.666Z,3.30
2023-04-07T03:13:48.592Z,3.20
2023-04-07T03:14:48.578Z,3.30
2023-04-07T03:15:48.566Z,3.20
2023-04-07T03:16:48.604Z,3.10
2023-04-07T03:17:48.598Z,3.60
2023-04-07T03:18:48.533Z,3.50
2023-04-07T03:19:48.539Z,3.40
2023-04-07T03:20:48.540Z,3.20
2023-04-07T03:21:48.514Z,3.10
2023-04-07T03:22:48.536Z,3.60
2023-04-07T03:23:48.481Z,3.60
2023-04-07T03:24:48.467Z,3.70
2023-04-07T03:25:48.844Z,3.30
2023-04-07T03:26:48.451Z,3.90
2023-04-07T03:27:48.511Z,3.40
2023-04-07T03:28:48.421Z,3.30
2023-04-07T03:29:48.423Z,3.50
2023-04-07T03:30:48.429Z,3.40
2023-04-07T03:31:48.408Z,3.30
2023-04-07T03:32:48.474Z,3.60
2023-04-07T03:33:48.378Z,3.70
2023-04-07T03:34:48.361Z,3.30
2023-04-07T03:35:48.422Z,3.60
2023-04-07T03:36:48.357Z,3.50
2023-04-07T03:37:48.335Z,3.50
2023-04-07T03:38:48.319Z,3.70
2023-04-07T03:39:49.438Z,3.00
2023-04-07T03:40:48.295Z,3.40
2023-04-07T03:41:48.312Z,3.70
2023-04-07T03:42:48.329Z,3.20
2023-04-07T03:43:48.270Z,3.40
2023-04-07T03:44:48.270Z,3.20
2023-04-07T03:45:48.261Z,3.40
2023-04-07T03:46:48.352Z,3.40
2023-04-07T03:47:48.263Z,3.10
2023-04-07T03:48:48.217Z,3.20
2023-04-07T03:49:48.218Z,3.20
2023-04-07T03:50:48.195Z,3.50
2023-04-07T03:51:48.196Z,3.80
2023-04-07T03:52:48.189Z,3.70
2023-04-07T03:53:48.173Z,3.30
2023-04-07T03:54:48.165Z,3.50
2023-04-07T03:55:48.153Z,3.30
2023-04-07T03:56:48.133Z,3.40
2023-04-07T03:57:48.127Z,3.90
2023-04-07T03:58:48.118Z,3.70
2023-04-07T03:59:48.106Z,3.60
2023-04-07T04:00:48.068Z,3.30
2023-04-07T04:01:48.076Z,3.00
2023-04-07T04:02:48.065Z,3.20
2023-04-07T04:03:48.211Z,3.20
2023-04-07T04:04:48.044Z,3.30
2023-04-07T04:05:47.985Z,3.80
2023-04-07T04:06:47.976Z,3.60
2023-04-07T04:07:47.978Z,3.30
2023-04-07T04:08:47.950Z,3.60
2023-04-07T04:09:47.948Z,3.60
2023-04-07T04:10:47.930Z,3.70
2023-04-07T04:11:47.930Z,4.20
2023-04-07T04:12:47.946Z,3.30
2023-04-07T04:13:47.908Z,3.50
2023-04-07T04:14:53.943Z,4.00
2023-04-07T04:15:48.168Z,4.00
2023-04-07T04:16:47.865Z,3.70
2023-04-07T04:17:47.952Z,3.30
2023-04-07T04:18:47.846Z,3.40
2023-04-07T04:19:47.874Z,4.00
2023-04-07T04:20:47.832Z,3.70
2023-04-07T04:21:47.824Z,3.60
2023-04-07T04:22:47.832Z,3.40
2023-04-07T04:23:47.802Z,3.70
2023-04-07T04:24:47.776Z,3.40
2023-04-07T04:25:47.796Z,3.60
2023-04-07T04:26:47.760Z,3.90
2023-04-07T04:27:47.817Z,4.00
2023-04-07T04:28:47.745Z,3.40
2023-04-07T04:29:47.753Z,3.90
2023-04-07T04:30:47.767Z,3.40
2023-04-07T04:31:47.761Z,3.80
2023-04-07T04:32:47.788Z,3.40
2023-04-07T04:33:47.787Z,3.30
2023-04-07T04:34:47.682Z,3.50
2023-04-07T04:35:47.678Z,3.50
2023-04-07T04:36:47.690Z,3.60
2023-04-07T04:37:47.664Z,3.30
2023-04-07T04:38:47.648Z,3.40
2023-04-07T04:39:47.632Z,3.30
2023-04-07T04:40:47.641Z,3.10
2023-04-07T04:41:47.607Z,3.50
2023-04-07T04:42:47.613Z,3.40
2023-04-07T04:43:48.100Z,3.60
2023-04-07T04:44:47.575Z,3.40
2023-04-07T04:45:47.566Z,3.90
2023-04-07T04:46:47.620Z,3.60
2023-04-07T04:47:47.595Z,3.30
2023-04-07T04:48:47.576Z,3.60
2023-04-07T04:49:47.527Z,3.40
2023-04-07T04:50:47.511Z,3.60
2023-04-07T04:51:47.517Z,3.50
2023-04-07T04:52:47.484Z,3.50
2023-04-07T04:53:47.512Z,4.30
2023-04-07T04:54:47.472Z,3.40
2023-04-07T04:55:47.487Z,4.60
2023-04-07T04:56:47.451Z,3.70
2023-04-07T04:57:47.442Z,3.80
2023-04-07T04:58:47.429Z,3.60
2023-04-07T04:59:47.429Z,3.70
2023-04-07T05:00:47.577Z,3.40
2023-04-07T05:01:47.646Z,3.50
2023-04-07T05:02:47.492Z,3.70
2023-04-07T05:03:47.608Z,15.80
2023-04-07T05:04:47.541Z,6.30
2023-04-07T05:05:47.352Z,5.10
2023-04-07T05:06:47.347Z,3.80
2023-04-07T05:07:47.365Z,3.20
2023-04-07T05:08:47.324Z,4.00
2023-04-07T05:09:47.307Z,3.30
2023-04-07T05:10:47.759Z,3.90
2023-04-07T05:11:47.294Z,3.30
2023-04-07T05:12:47.293Z,3.50
2023-04-07T05:13:47.296Z,3.60
2023-04-07T05:14:47.256Z,3.50
2023-04-07T05:15:47.281Z,3.70
2023-04-07T05:16:47.254Z,3.10
2023-04-07T05:17:47.309Z,3.50
2023-04-07T05:18:47.221Z,3.50
2023-04-07T05:19:47.296Z,3.20
2023-04-07T05:20:47.194Z,3.30
2023-04-07T05:21:47.191Z,3.80
2023-04-07T05:22:47.351Z,3.50
2023-04-07T05:23:47.186Z,3.50
2023-04-07T05:24:47.219Z,3.90
2023-04-07T05:25:47.145Z,4.00
2023-04-07T05:26:47.121Z,3.50
2023-04-07T05:27:47.128Z,3.80
2023-04-07T05:28:47.120Z,3.70
2023-04-07T05:29:47.099Z,3.90
2023-04-07T05:30:47.099Z,3.60
2023-04-07T05:31:47.130Z,3.60
2023-04-07T05:32:47.097Z,3.70
2023-04-07T05:33:47.060Z,3.70
2023-04-07T05:34:47.038Z,3.80
2023-04-07T05:35:47.086Z,3.50
2023-04-07T05:36:47.020Z,3.90
2023-04-07T05:37:47.034Z,3.80
2023-04-07T05:38:47.006Z,3.90
2023-04-07T05:39:47.060Z,3.90
2023-04-07T05:40:46.983Z,3.60
2023-04-07T05:41:46.972Z,3.70
2023-04-07T05:42:46.975Z,3.90
2023-04-07T05:43:46.961Z,3.90
2023-04-07T05:44:46.974Z,3.60
2023-04-07T05:45:46.977Z,3.90
2023-04-07T05:46:46.931Z,3.90
2023-04-07T05:47:46.973Z,4.30
2023-04-07T05:48:46.921Z,3.90
2023-04-07T05:49:46.887Z,4.00
2023-04-07T05:50:46.908Z,3.80
2023-04-07T05:51:48.808Z,4.00
2023-04-07T05:52:46.868Z,3.60
2023-04-07T05:53:46.865Z,3.90
2023-04-07T05:54:46.837Z,3.50
2023-04-07T05:55:46.817Z,3.80
2023-04-07T05:56:46.835Z,4.40
2023-04-07T05:57:46.798Z,3.80
2023-04-07T05:58:46.927Z,3.60
2023-04-07T05:59:46.789Z,4.10
2023-04-07T06:00:46.779Z,4.10
2023-04-07T06:01:46.879Z,4.30
2023-04-07T06:02:47.019Z,3.90
2023-04-07T06:03:46.852Z,4.20
2023-04-07T06:04:46.726Z,3.50
2023-04-07T06:05:46.772Z,3.80
2023-04-07T06:06:46.708Z,3.90
2023-04-07T06:07:46.748Z,3.90
2023-04-07T06:08:46.744Z,3.90
2023-04-07T06:09:46.676Z,3.80
2023-04-07T06:10:46.804Z,4.00
2023-04-07T06:11:46.646Z,3.90
2023-04-07T06:12:46.664Z,4.00
2023-04-07T06:13:46.884Z,4.00
2023-04-07T06:14:46.632Z,4.00
2023-04-07T06:15:46.615Z,3.90
2023-04-07T06:16:46.640Z,3.90
2023-04-07T06:17:46.637Z,4.10
2023-04-07T06:18:46.589Z,4.30
2023-04-07T06:19:46.564Z,3.60
2023-04-07T06:20:46.560Z,4.20
2023-04-07T06:21:46.551Z,4.10
2023-04-07T06:22:46.548Z,3.90
2023-04-07T06:23:46.607Z,4.00
2023-04-07T06:24:46.535Z,4.00
2023-04-07T06:25:46.503Z,4.00
2023-04-07T06:26:46.495Z,4.10
2023-04-07T06:27:46.556Z,3.60
2023-04-07T06:28:46.500Z,3.90
2023-04-07T06:29:46.472Z,3.60
2023-04-07T06:30:46.478Z,4.10
2023-04-07T06:31:46.433Z,4.00
2023-04-07T06:32:46.491Z,4.10
2023-04-07T06:33:46.658Z,4.00
2023-04-07T06:34:46.441Z,4.10
2023-04-07T06:35:46.412Z,4.00
2023-04-07T06:36:46.777Z,4.20
2023-04-07T06:37:46.398Z,4.20
2023-04-07T06:38:46.372Z,4.50
2023-04-07T06:39:46.359Z,4.30
2023-04-07T06:40:46.425Z,4.20
2023-04-07T06:41:46.353Z,3.80
2023-04-07T06:42:46.539Z,3.90
2023-04-07T06:43:46.483Z,4.20
2023-04-07T06:44:46.324Z,3.70
2023-04-07T06:45:46.383Z,8.70
2023-04-07T06:46:46.296Z,9.10
2023-04-07T06:47:46.333Z,5.40
2023-04-07T06:48:46.273Z,4.60
2023-04-07T06:49:46.275Z,4.50
2023-04-07T06:50:46.235Z,4.30
2023-04-07T06:51:46.240Z,4.50
2023-04-07T06:52:46.222Z,4.60
2023-04-07T06:53:46.553Z,4.70
2023-04-07T06:54:46.210Z,4.50
2023-04-07T06:55:46.219Z,4.80
2023-04-07T06:56:46.251Z,4.40
2023-04-07T06:57:46.171Z,4.70
2023-04-07T06:58:46.167Z,4.60
2023-04-07T06:59:46.145Z,4.50
2023-04-07T07:00:46.153Z,4.30
2023-04-07T07:01:46.187Z,4.30
2023-04-07T07:02:46.389Z,4.20
2023-04-07T07:03:46.250Z,4.00
2023-04-07T07:04:46.114Z,4.30
2023-04-07T07:05:46.224Z,4.50
2023-04-07T07:06:46.125Z,3.80
2023-04-07T07:07:46.078Z,4.10
2023-04-07T07:08:46.124Z,4.30
2023-04-07T07:09:46.104Z,4.30
2023-04-07T07:10:46.118Z,4.20
2023-04-07T07:11:46.062Z,4.10
2023-04-07T07:12:46.016Z,4.40
2023-04-07T07:13:46.606Z,3.70
2023-04-07T07:14:46.043Z,4.10
2023-04-07T07:15:46.040Z,4.30
2023-04-07T07:16:45.983Z,3.90
2023-04-07T07:17:46.039Z,4.50
2023-04-07T07:18:46.032Z,3.90
2023-04-07T07:19:46.008Z,4.40
2023-04-07T07:20:45.990Z,4.10
2023-04-07T07:21:45.952Z,4.30
2023-04-07T07:22:46.319Z,10.50
2023-04-07T07:23:46.310Z,11.40
2023-04-07T07:24:45.926Z,15.10
2023-04-07T07:25:45.913Z,8.10
2023-04-07T07:26:46.003Z,5.60
2023-04-07T07:27:46.047Z,4.30
2023-04-07T07:28:46.032Z,3.70
2023-04-07T07:29:45.886Z,4.30
2023-04-07T07:30:45.883Z,4.30
2023-04-07T07:31:45.850Z,3.70
2023-04-07T07:32:45.942Z,3.70
2023-04-07T07:33:46.133Z,4.00
2023-04-07T07:34:45.803Z,4.20
2023-04-07T07:35:45.923Z,4.20
2023-04-07T07:36:45.827Z,3.30
2023-04-07T07:37:45.923Z,3.90
2023-04-07T07:38:45.911Z,4.00
2023-04-07T07:39:45.760Z,3.90
2023-04-07T07:40:45.748Z,3.60
2023-04-07T07:41:45.864Z,3.90
2023-04-07T07:42:46.523Z,3.80
2023-04-07T07:43:46.078Z,3.80
2023-04-07T07:44:45.744Z,4.00
2023-04-07T07:45:45.756Z,3.50
2023-04-07T07:46:45.809Z,3.70
2023-04-07T07:47:45.804Z,3.80
2023-04-07T07:48:45.784Z,3.80
2023-04-07T07:49:45.713Z,3.70
2023-04-07T07:50:45.690Z,3.40
2023-04-07T07:51:45.655Z,3.50
2023-04-07T07:52:45.913Z,3.50
2023-04-07T07:53:46.040Z,3.60
2023-04-07T07:54:45.637Z,3.30
2023-04-07T07:55:45.573Z,3.50
2023-04-07T07:56:45.566Z,3.50
2023-04-07T07:57:45.595Z,3.60
2023-04-07T07:58:45.525Z,3.70
2023-04-07T07:59:45.667Z,3.70
2023-04-07T08:00:45.509Z,3.40
2023-04-07T08:01:45.512Z,3.50
2023-04-07T08:02:45.574Z,3.90
2023-04-07T08:03:45.792Z,3.20
2023-04-07T08:04:45.568Z,3.80
2023-04-07T08:05:45.449Z,3.10
2023-04-07T08:06:45.436Z,3.30
2023-04-07T08:07:45.476Z,3.50
2023-04-07T08:08:45.430Z,6.60
2023-04-07T08:09:45.409Z,12.30
2023-04-07T08:10:45.400Z,10.40
2023-04-07T08:11:45.448Z,4.80
2023-04-07T08:12:45.436Z,4.60
2023-04-07T08:13:45.543Z,3.40
2023-04-07T08:14:45.347Z,3.60
2023-04-07T08:15:45.356Z,2.90
2023-04-07T08:16:45.382Z,3.50
2023-04-07T08:17:45.431Z,3.30
2023-04-07T08:18:45.493Z,3.50
2023-04-07T08:19:45.314Z,3.40
2023-04-07T08:20:45.287Z,3.20
2023-04-07T08:21:45.280Z,3.10
2023-04-07T08:22:45.302Z,3.10
2023-04-07T08:23:45.378Z,3.20
2023-04-07T08:24:45.239Z,3.40
2023-04-07T08:25:45.229Z,3.40
2023-04-07T08:26:45.253Z,3.40
2023-04-07T08:27:45.208Z,5.20
2023-04-07T08:28:45.230Z,5.80
2023-04-07T08:29:45.190Z,4.10
2023-04-07T08:30:45.207Z,4.00
2023-04-07T08:31:45.254Z,3.30
2023-04-07T08:32:45.301Z,3.90
2023-04-07T08:33:45.225Z,3.60
2023-04-07T08:34:45.159Z,3.60
2023-04-07T08:35:45.142Z,3.30
2023-04-07T08:36:45.252Z,3.20
2023-04-07T08:37:45.101Z,3.80
2023-04-07T08:38:45.107Z,3.40
2023-04-07T08:39:45.076Z,3.10
2023-04-07T08:40:45.074Z,3.00
2023-04-07T08:41:45.074Z,2.80
2023-04-07T08:42:45.070Z,2.60
2023-04-07T08:43:45.103Z,2.90
2023-04-07T08:44:45.033Z,3.40
2023-04-07T08:45:45.007Z,2.80
2023-04-07T08:46:45.062Z,3.30
2023-04-07T08:47:45.056Z,3.00
2023-04-07T08:48:45.021Z,3.10
2023-04-07T08:49:45.042Z,2.70
2023-04-07T08:50:44.966Z,2.90
2023-04-07T08:51:44.951Z,2.70
2023-04-07T08:52:44.942Z,3.00
2023-04-07T08:53:45.046Z,3.00
2023-04-07T08:54:44.931Z,2.90
2023-04-07T08:55:44.913Z,2.60
2023-04-07T08:56:44.906Z,2.70
2023-04-07T08:57:44.884Z,3.00
2023-04-07T08:58:44.897Z,2.80
2023-04-07T08:59:44.880Z,2.50
2023-04-07T09:00:44.899Z,2.80
2023-04-07T09:01:44.890Z,3.20
2023-04-07T09:02:44.919Z,3.00
2023-04-07T09:03:45.028Z,3.00
2023-04-07T09:04:44.870Z,2.60
2023-04-07T09:05:44.807Z,2.60
2023-04-07T09:06:44.808Z,7.50
2023-04-07T09:07:44.816Z,10.50
2023-04-07T09:08:44.853Z,6.60
2023-04-07T09:09:44.765Z,3.30
2023-04-07T09:10:45.677Z,2.40
2023-04-07T09:11:44.765Z,2.70
2023-04-07T09:12:44.751Z,2.70
2023-04-07T09:13:44.808Z,2.30
2023-04-07T09:14:44.764Z,3.00
2023-04-07T09:15:44.744Z,2.70
2023-04-07T09:16:44.778Z,2.20
2023-04-07T09:17:44.729Z,2.40
2023-04-07T09:18:44.717Z,2.60
2023-04-07T09:19:44.680Z,2.40
2023-04-07T09:20:45.476Z,2.40
2023-04-07T09:21:44.663Z,3.00
2023-04-07T09:22:44.660Z,2.90
2023-04-07T09:23:44.877Z,2.30
2023-04-07T09:24:44.964Z,2.70
2023-04-07T09:25:44.633Z,2.50
2023-04-07T09:26:44.627Z,2.50
2023-04-07T09:27:44.589Z,2.10
2023-04-07T09:28:44.577Z,6.00
2023-04-07T09:29:44.559Z,9.60
2023-04-07T09:30:44.699Z,9.50
2023-04-07T09:31:44.953Z,3.30
2023-04-07T09:32:45.266Z,2.50
2023-04-07T09:33:44.893Z,2.90
2023-04-07T09:34:44.523Z,2.40
2023-04-07T09:35:44.574Z,2.20
2023-04-07T09:36:44.500Z,2.50
2023-04-07T09:37:44.709Z,2.50
2023-04-07T09:38:44.804Z,2.30
2023-04-07T09:39:44.442Z,2.30
2023-04-07T09:40:44.466Z,2.30
2023-04-07T09:41:44.454Z,2.80
2023-04-07T09:42:44.455Z,2.60
2023-04-07T09:43:44.749Z,2.40
2023-04-07T09:44:44.397Z,2.10
2023-04-07T09:45:44.417Z,2.10
2023-04-07T09:46:44.457Z,2.40
2023-04-07T09:47:44.412Z,2.70
2023-04-07T09:48:44.382Z,2.40
2023-04-07T09:49:44.341Z,2.70
2023-04-07T09:50:44.340Z,2.50
2023-04-07T09:51:44.360Z,2.50
2023-04-07T09:52:44.366Z,2.80
2023-04-07T09:53:44.343Z,2.50
2023-04-07T09:54:44.308Z,2.40
2023-04-07T09:55:44.306Z,2.90
2023-04-07T09:56:44.286Z,2.70
2023-04-07T09:57:44.257Z,2.80
2023-04-07T09:58:44.250Z,13.50
2023-04-07T09:59:44.256Z,12.10
2023-04-07T10:00:44.291Z,14.30
2023-04-07T10:01:44.323Z,4.50
2023-04-07T10:02:44.328Z,2.60
2023-04-07T10:03:44.240Z,2.60
2023-04-07T10:04:44.205Z,2.70
2023-04-07T10:05:44.175Z,2.40
2023-04-07T10:06:44.200Z,2.50
2023-04-07T10:07:44.159Z,2.40
2023-04-07T10:08:44.171Z,2.70
2023-04-07T10:09:44.145Z,2.20
2023-04-07T10:10:44.128Z,2.60
2023-04-07T10:11:44.115Z,2.30
2023-04-07T10:12:44.147Z,2.40
2023-04-07T10:13:44.150Z,2.30
2023-04-07T10:14:44.094Z,2.40
2023-04-07T10:15:50.837Z,2.30
2023-04-07T10:16:44.803Z,2.10
2023-04-07T10:17:44.105Z,2.40
2023-04-07T10:18:44.060Z,2.40
2023-04-07T10:19:44.056Z,2.20
2023-04-07T10:20:44.033Z,2.20
2023-04-07T10:21:44.030Z,2.60
2023-04-07T10:22:44.012Z,2.60
2023-04-07T10:23:43.993Z,2.50
2023-04-07T10:24:44.008Z,2.60
2023-04-07T10:25:43.983Z,2.30
2023-04-07T10:26:43.968Z,2.30
2023-04-07T10:27:43.955Z,2.10
2023-04-07T10:28:43.954Z,2.20
2023-04-07T10:29:43.956Z,2.50
2023-04-07T10:30:43.946Z,2.10
2023-04-07T10:31:43.922Z,2.20
2023-04-07T10:32:43.972Z,2.30
2023-04-07T10:33:43.917Z,2.20
2023-04-07T10:34:43.952Z,2.30
2023-04-07T10:35:43.911Z,2.50
2023-04-07T10:36:43.856Z,2.30
2023-04-07T10:37:43.932Z,2.20
2023-04-07T10:38:43.853Z,2.20
2023-04-07T10:39:43.860Z,2.40
2023-04-07T10:40:43.847Z,2.40
2023-04-07T10:41:43.808Z,2.40
2023-04-07T10:42:43.800Z,2.60
2023-04-07T10:43:43.792Z,2.20
2023-04-07T10:44:43.863Z,2.50
2023-04-07T10:45:43.766Z,2.20
2023-04-07T10:46:43.788Z,2.50
2023-04-07T10:47:43.759Z,2.30
2023-04-07T10:48:43.758Z,2.60
2023-04-07T10:49:43.736Z,2.50
2023-04-07T10:50:43.730Z,2.50
2023-04-07T10:51:43.731Z,2.80
2023-04-07T10:52:43.707Z,2.30
2023-04-07T10:53:43.713Z,2.80
2023-04-07T10:54:43.683Z,2.50
2023-04-07T10:55:43.692Z,2.20
2023-04-07T10:56:43.665Z,2.20
2023-04-07T10:57:43.651Z,2.40
2023-04-07T10:58:43.650Z,2.30
2023-04-07T10:59:43.639Z,2.20
2023-04-07T11:00:43.624Z,2.30
2023-04-07T11:01:43.673Z,2.10
2023-04-07T11:02:43.758Z,2.10
2023-04-07T11:03:43.761Z,2.40
2023-04-07T11:04:43.677Z,2.50
2023-04-07T11:05:43.568Z,2.70
2023-04-07T11:06:43.566Z,2.30
2023-04-07T11:07:43.554Z,2.50
2023-04-07T11:08:43.567Z,2.70
2023-04-07T11:09:43.523Z,2.50
2023-04-07T11:10:43.514Z,2.50
2023-04-07T11:11:43.519Z,2.80
2023-04-07T11:12:43.483Z,2.30
2023-04-07T11:13:43.505Z,2.40
2023-04-07T11:14:43.476Z,3.20
2023-04-07T11:15:43.545Z,2.70
2023-04-07T11:16:43.514Z,2.80
2023-04-07T11:17:43.479Z,2.70
2023-04-07T11:18:43.462Z,2.30
2023-04-07T11:19:43.437Z,2.80
2023-04-07T11:20:45.504Z,2.40
2023-04-07T11:21:43.464Z,2.70
2023-04-07T11:22:43.389Z,2.70
2023-04-07T11:23:43.392Z,3.00
2023-04-07T11:24:43.364Z,2.60
2023-04-07T11:25:43.352Z,3.20
2023-04-07T11:26:43.335Z,3.30
2023-04-07T11:27:43.330Z,3.10
2023-04-07T11:28:43.337Z,3.30
2023-04-07T11:29:43.347Z,4.00
2023-04-07T11:30:43.301Z,3.80
2023-04-07T11:31:43.311Z,4.20
2023-04-07T11:32:43.351Z,4.40
2023-04-07T11:33:43.312Z,3.80
2023-04-07T11:34:43.274Z,4.00
2023-04-07T11:35:43.276Z,4.20
2023-04-07T11:36:43.241Z,3.90
2023-04-07T11:37:43.244Z,4.70
2023-04-07T11:38:44.883Z,5.20
2023-04-07T11:39:43.252Z,4.20
2023-04-07T11:40:43.228Z,5.20
2023-04-07T11:41:43.195Z,5.10
2023-04-07T11:42:43.184Z,6.10
2023-04-07T11:43:43.228Z,5.90
2023-04-07T11:44:43.182Z,5.70
2023-04-07T11:45:43.154Z,6.00
2023-04-07T11:46:43.175Z,5.90
2023-04-07T11:47:43.148Z,6.50
2023-04-07T11:48:43.151Z,6.60
2023-04-07T11:49:43.112Z,6.50
2023-04-07T11:50:43.080Z,6.00
2023-04-07T11:51:43.097Z,5.80
2023-04-07T11:52:43.083Z,5.80
2023-04-07T11:53:43.076Z,5.50
2023-04-07T11:54:43.065Z,5.50
2023-04-07T11:55:43.067Z,5.20
2023-04-07T11:56:43.022Z,5.00
2023-04-07T11:57:43.030Z,5.10
2023-04-07T11:58:42.999Z,4.80
2023-04-07T11:59:43.062Z,4.20
2023-04-07T12:00:43.012Z,4.50
2023-04-07T12:01:43.066Z,4.10
2023-04-07T12:02:43.142Z,4.10
2023-04-07T12:03:43.078Z,3.80
2023-04-07T12:04:43.004Z,4.20
2023-04-07T12:05:42.930Z,3.90
2023-04-07T12:06:42.974Z,4.30
2023-04-07T12:07:42.926Z,3.90
2023-04-07T12:08:42.921Z,3.60
2023-04-07T12:09:42.896Z,3.80
2023-04-07T12:10:42.901Z,3.30
2023-04-07T12:11:42.922Z,3.50
2023-04-07T12:12:42.869Z,3.60
2023-04-07T12:13:42.906Z,3.00
2023-04-07T12:14:42.868Z,3.10
2023-04-07T12:15:42.839Z,3.30
2023-04-07T12:16:42.851Z,3.90
2023-04-07T12:17:42.853Z,3.50
2023-04-07T12:18:42.842Z,3.50
2023-04-07T12:19:42.804Z,3.40
2023-04-07T12:20:42.769Z,3.20
2023-04-07T12:21:42.771Z,3.60
2023-04-07T12:22:42.768Z,3.90
2023-04-07T12:23:42.809Z,3.60
2023-04-07T12:24:42.766Z,3.50
2023-04-07T12:25:42.746Z,3.50
2023-04-07T12:26:42.720Z,4.00
2023-04-07T12:27:43.893Z,3.60
2023-04-07T12:28:42.699Z,3.80
2023-04-07T12:29:42.702Z,4.00
2023-04-07T12:30:42.661Z,4.10
2023-04-07T12:31:42.697Z,4.10
2023-04-07T12:32:42.696Z,4.30
2023-04-07T12:33:42.694Z,4.20
2023-04-07T12:34:42.622Z,4.40
2023-04-07T12:35:42.650Z,4.60
2023-04-07T12:36:42.618Z,4.40
2023-04-07T12:37:42.604Z,4.40
2023-04-07T12:38:42.608Z,4.70
2023-04-07T12:39:42.572Z,4.80
2023-04-07T12:40:42.559Z,5.00
2023-04-07T12:41:42.611Z,4.80
2023-04-07T12:42:42.556Z,5.00
2023-04-07T12:43:42.636Z,4.90
2023-04-07T12:44:42.561Z,5.10
2023-04-07T12:45:42.579Z,4.60
2023-04-07T12:46:42.493Z,4.80
2023-04-07T12:47:42.533Z,5.00
2023-04-07T12:48:42.496Z,4.70
2023-04-07T12:49:42.499Z,4.70
2023-04-07T12:50:42.455Z,4.50
2023-04-07T12:51:42.526Z,4.20
2023-04-07T12:52:42.436Z,3.70
2023-04-07T12:53:42.471Z,4.10
2023-04-07T12:54:42.431Z,5.70
2023-04-07T12:55:42.409Z,13.40
2023-04-07T12:56:42.406Z,10.20
2023-04-07T12:57:42.405Z,5.60
2023-04-07T12:58:42.385Z,3.90
2023-04-07T12:59:42.367Z,3.10
2023-04-07T13:00:42.349Z,3.20
2023-04-07T13:01:42.428Z,2.90
2023-04-07T13:02:42.517Z,2.80
2023-04-07T13:03:42.524Z,2.90
2023-04-07T13:04:42.311Z,2.40
2023-04-07T13:05:42.303Z,2.90
2023-04-07T13:06:42.304Z,2.70
2023-04-07T13:07:42.290Z,2.50
2023-04-07T13:08:42.303Z,3.00
2023-04-07T13:09:42.267Z,2.30
2023-04-07T13:10:42.245Z,2.30
2023-04-07T13:11:42.266Z,2.20
2023-04-07T13:12:42.227Z,2.30
2023-04-07T13:13:42.249Z,2.50
2023-04-07T13:14:52.909Z,2.20
2023-04-07T13:15:42.243Z,2.60
2023-04-07T13:16:42.229Z,2.20
2023-04-07T13:17:42.227Z,2.40
2023-04-07T13:18:42.184Z,2.30